sensor_id;sensor_type;location;lat;lon;timestamp;P1;durP1;ratioP1;P2;durP2;ratioP2
7965;SDS011;4028;43.272;26.932;2023-03-14T00:01:46;12.90;;;8.20;;
7965;SDS011;4028;43.272;26.932;2023-03-14T00:04:12;10.47;;;6.53;;
7965;SDS011;4028;43.272;26.932;2023-03-14T00:06:37;7.37;;;4.13;;
7965;SDS011;4028;43.272;26.932;2023-03-14T00:09:03;8.40;;;4.60;;
7965;SDS011;4028;43.272;26.932;2023-03-14T00:11:28;7.40;;;4.53;;
7965;SDS011;4028;43.272;26.932;2023-03-14T00:13:54;6.63;;;4.67;;
7965;SDS011;4028;43.272;26.932;2023-03-14T00:16:20;5.60;;;4.07;;
7965;SDS011;4028;43.272;26.932;2023-03-14T00:18:46;5.50;;;4.33;;
7965;SDS011;4028;43.272;26.932;2023-03-14T00:21:12;10.33;;;4.77;;
7965;SDS011;4028;43.272;26.932;2023-03-14T00:23:38;8.17;;;6.07;;
7965;SDS011;4028;43.272;26.932;2023-03-14T00:26:09;11.00;;;6.63;;
7965;SDS011;4028;43.272;26.932;2023-03-14T00:28:42;15.37;;;8.13;;
7965;SDS011;4028;43.272;26.932;2023-03-14T00:31:10;13.00;;;7.87;;
7965;SDS011;4028;43.272;26.932;2023-03-14T00:33:37;12.87;;;8.63;;
7965;SDS011;4028;43.272;26.932;2023-03-14T00:36:04;13.37;;;9.00;;
7965;SDS011;4028;43.272;26.932;2023-03-14T00:38:31;13.47;;;8.47;;
7965;SDS011;4028;43.272;26.932;2023-03-14T00:40:57;13.27;;;8.03;;
7965;SDS011;4028;43.272;26.932;2023-03-14T00:43:23;13.03;;;8.53;;
7965;SDS011;4028;43.272;26.932;2023-03-14T00:45:50;14.60;;;8.10;;
7965;SDS011;4028;43.272;26.932;2023-03-14T00:48:17;12.83;;;7.67;;
7965;SDS011;4028;43.272;26.932;2023-03-14T00:50:43;9.83;;;7.10;;
7965;SDS011;4028;43.272;26.932;2023-03-14T00:53:09;14.97;;;9.00;;
7965;SDS011;4028;43.272;26.932;2023-03-14T00:55:38;11.10;;;7.93;;
7965;SDS011;4028;43.272;26.932;2023-03-14T00:58:05;11.07;;;8.00;;
7965;SDS011;4028;43.272;26.932;2023-03-14T01:00:31;10.43;;;8.10;;
7965;SDS011;4028;43.272;26.932;2023-03-14T01:02:57;9.23;;;7.30;;
7965;SDS011;4028;43.272;26.932;2023-03-14T01:05:23;9.10;;;6.60;;
7965;SDS011;4028;43.272;26.932;2023-03-14T01:07:49;9.57;;;7.00;;
7965;SDS011;4028;43.272;26.932;2023-03-14T01:10:15;9.50;;;6.00;;
7965;SDS011;4028;43.272;26.932;2023-03-14T01:12:40;9.77;;;6.50;;
7965;SDS011;4028;43.272;26.932;2023-03-14T01:15:06;10.43;;;6.90;;
7965;SDS011;4028;43.272;26.932;2023-03-14T01:17:32;10.67;;;7.53;;
7965;SDS011;4028;43.272;26.932;2023-03-14T01:19:58;9.73;;;6.97;;
7965;SDS011;4028;43.272;26.932;2023-03-14T01:22:24;11.50;;;7.70;;
7965;SDS011;4028;43.272;26.932;2023-03-14T01:24:50;9.30;;;7.20;;
7965;SDS011;4028;43.272;26.932;2023-03-14T01:27:15;11.97;;;7.53;;
7965;SDS011;4028;43.272;26.932;2023-03-14T01:29:41;11.90;;;7.63;;
7965;SDS011;4028;43.272;26.932;2023-03-14T01:32:06;11.17;;;7.60;;
7965;SDS011;4028;43.272;26.932;2023-03-14T01:34:32;13.07;;;8.13;;
7965;SDS011;4028;43.272;26.932;2023-03-14T01:36:57;10.43;;;7.30;;
7965;SDS011;4028;43.272;26.932;2023-03-14T01:39:23;10.93;;;7.60;;
7965;SDS011;4028;43.272;26.932;2023-03-14T01:41:48;11.80;;;8.00;;
7965;SDS011;4028;43.272;26.932;2023-03-14T01:44:13;12.90;;;7.70;;
7965;SDS011;4028;43.272;26.932;2023-03-14T01:46:40;14.60;;;8.30;;
7965;SDS011;4028;43.272;26.932;2023-03-14T01:49:24;13.23;;;8.13;;
7965;SDS011;4028;43.272;26.932;2023-03-14T01:54:21;11.90;;;7.53;;
7965;SDS011;4028;43.272;26.932;2023-03-14T01:56:56;7.20;;;6.07;;
7965;SDS011;4028;43.272;26.932;2023-03-14T01:59:28;8.43;;;5.27;;
7965;SDS011;4028;43.272;26.932;2023-03-14T02:01:57;8.37;;;5.80;;
7965;SDS011;4028;43.272;26.932;2023-03-14T02:04:23;7.67;;;5.23;;
7965;SDS011;4028;43.272;26.932;2023-03-14T02:09:58;8.53;;;6.60;;
7965;SDS011;4028;43.272;26.932;2023-03-14T02:12:26;7.50;;;5.37;;
7965;SDS011;4028;43.272;26.932;2023-03-14T02:14:52;12.10;;;6.13;;
7965;SDS011;4028;43.272;26.932;2023-03-14T02:17:18;7.03;;;5.30;;
7965;SDS011;4028;43.272;26.932;2023-03-14T02:22:33;7.00;;;4.40;;
7965;SDS011;4028;43.272;26.932;2023-03-14T02:27:33;5.20;;;3.50;;
7965;SDS011;4028;43.272;26.932;2023-03-14T02:30:00;4.60;;;3.80;;
7965;SDS011;4028;43.272;26.932;2023-03-14T02:32:32;5.20;;;3.57;;
7965;SDS011;4028;43.272;26.932;2023-03-14T02:35:00;4.37;;;3.70;;
7965;SDS011;4028;43.272;26.932;2023-03-14T02:37:35;6.13;;;4.60;;
7965;SDS011;4028;43.272;26.932;2023-03-14T02:40:06;5.90;;;4.53;;
7965;SDS011;4028;43.272;26.932;2023-03-14T02:42:32;5.87;;;4.67;;
7965;SDS011;4028;43.272;26.932;2023-03-14T02:45:25;5.37;;;4.30;;
7965;SDS011;4028;43.272;26.932;2023-03-14T02:47:48;8.33;;;5.07;;
7965;SDS011;4028;43.272;26.932;2023-03-14T02:50:18;8.13;;;5.83;;
7965;SDS011;4028;43.272;26.932;2023-03-14T02:52:48;9.67;;;6.40;;
7965;SDS011;4028;43.272;26.932;2023-03-14T02:55:14;8.80;;;6.33;;
7965;SDS011;4028;43.272;26.932;2023-03-14T02:57:39;10.27;;;7.10;;
7965;SDS011;4028;43.272;26.932;2023-03-14T03:00:05;12.60;;;8.70;;
7965;SDS011;4028;43.272;26.932;2023-03-14T03:02:32;16.83;;;11.07;;
7965;SDS011;4028;43.272;26.932;2023-03-14T03:04:57;18.37;;;11.43;;
7965;SDS011;4028;43.272;26.932;2023-03-14T03:07:23;22.27;;;14.30;;
7965;SDS011;4028;43.272;26.932;2023-03-14T03:09:49;20.90;;;13.37;;
7965;SDS011;4028;43.272;26.932;2023-03-14T03:12:14;17.70;;;11.80;;
7965;SDS011;4028;43.272;26.932;2023-03-14T03:14:40;16.13;;;9.80;;
7965;SDS011;4028;43.272;26.932;2023-03-14T03:17:06;14.23;;;8.57;;
7965;SDS011;4028;43.272;26.932;2023-03-14T03:19:32;12.63;;;7.87;;
7965;SDS011;4028;43.272;26.932;2023-03-14T03:21:58;11.50;;;7.77;;
7965;SDS011;4028;43.272;26.932;2023-03-14T03:24:24;10.37;;;7.33;;
7965;SDS011;4028;43.272;26.932;2023-03-14T03:26:51;11.10;;;7.10;;
7965;SDS011;4028;43.272;26.932;2023-03-14T03:29:16;9.83;;;7.20;;
7965;SDS011;4028;43.272;26.932;2023-03-14T03:31:41;12.17;;;7.03;;
7965;SDS011;4028;43.272;26.932;2023-03-14T03:34:07;8.47;;;6.20;;
7965;SDS011;4028;43.272;26.932;2023-03-14T03:36:33;8.27;;;5.67;;
7965;SDS011;4028;43.272;26.932;2023-03-14T03:38:59;6.03;;;4.70;;
7965;SDS011;4028;43.272;26.932;2023-03-14T03:41:24;7.87;;;4.30;;
7965;SDS011;4028;43.272;26.932;2023-03-14T03:43:50;5.73;;;4.63;;
7965;SDS011;4028;43.272;26.932;2023-03-14T03:46:15;6.80;;;4.97;;
7965;SDS011;4028;43.272;26.932;2023-03-14T03:48:41;9.40;;;5.00;;
7965;SDS011;4028;43.272;26.932;2023-03-14T03:51:06;5.87;;;4.03;;
7965;SDS011;4028;43.272;26.932;2023-03-14T03:53:32;7.33;;;4.10;;
7965;SDS011;4028;43.272;26.932;2023-03-14T03:55:57;8.53;;;4.97;;
7965;SDS011;4028;43.272;26.932;2023-03-14T03:58:23;6.90;;;5.03;;
7965;SDS011;4028;43.272;26.932;2023-03-14T04:00:48;9.63;;;5.80;;
7965;SDS011;4028;43.272;26.932;2023-03-14T04:03:14;8.93;;;6.10;;
7965;SDS011;4028;43.272;26.932;2023-03-14T04:05:39;12.30;;;6.80;;
7965;SDS011;4028;43.272;26.932;2023-03-14T04:08:05;12.43;;;6.63;;
7965;SDS011;4028;43.272;26.932;2023-03-14T04:10:33;10.77;;;7.13;;
7965;SDS011;4028;43.272;26.932;2023-03-14T04:12:59;12.10;;;7.60;;
7965;SDS011;4028;43.272;26.932;2023-03-14T04:15:25;12.37;;;8.77;;
7965;SDS011;4028;43.272;26.932;2023-03-14T04:17:50;17.60;;;8.80;;
7965;SDS011;4028;43.272;26.932;2023-03-14T04:20:16;16.00;;;9.10;;
7965;SDS011;4028;43.272;26.932;2023-03-14T04:22:42;17.10;;;10.93;;
7965;SDS011;4028;43.272;26.932;2023-03-14T04:25:08;19.23;;;11.90;;
7965;SDS011;4028;43.272;26.932;2023-03-14T04:27:34;21.23;;;11.23;;
7965;SDS011;4028;43.272;26.932;2023-03-14T04:29:59;17.97;;;10.43;;
7965;SDS011;4028;43.272;26.932;2023-03-14T04:32:24;20.60;;;10.73;;
7965;SDS011;4028;43.272;26.932;2023-03-14T04:34:50;22.03;;;10.50;;
7965;SDS011;4028;43.272;26.932;2023-03-14T04:37:15;18.73;;;11.77;;
7965;SDS011;4028;43.272;26.932;2023-03-14T04:39:41;25.30;;;12.83;;
7965;SDS011;4028;43.272;26.932;2023-03-14T04:42:07;35.30;;;13.57;;
7965;SDS011;4028;43.272;26.932;2023-03-14T04:44:32;24.73;;;11.53;;
7965;SDS011;4028;43.272;26.932;2023-03-14T04:46:58;22.00;;;12.73;;
7965;SDS011;4028;43.272;26.932;2023-03-14T04:49:23;23.50;;;11.90;;
7965;SDS011;4028;43.272;26.932;2023-03-14T04:51:49;15.00;;;10.43;;
7965;SDS011;4028;43.272;26.932;2023-03-14T04:54:16;18.83;;;10.53;;
7965;SDS011;4028;43.272;26.932;2023-03-14T04:56:42;19.77;;;9.97;;
7965;SDS011;4028;43.272;26.932;2023-03-14T04:59:08;22.57;;;10.47;;
7965;SDS011;4028;43.272;26.932;2023-03-14T05:01:33;18.40;;;9.80;;
7965;SDS011;4028;43.272;26.932;2023-03-14T05:03:59;17.47;;;9.10;;
7965;SDS011;4028;43.272;26.932;2023-03-14T05:06:25;20.80;;;9.63;;
7965;SDS011;4028;43.272;26.932;2023-03-14T05:08:50;15.07;;;9.03;;
7965;SDS011;4028;43.272;26.932;2023-03-14T05:11:16;15.93;;;10.37;;
7965;SDS011;4028;43.272;26.932;2023-03-14T05:13:41;18.63;;;9.30;;
7965;SDS011;4028;43.272;26.932;2023-03-14T05:16:07;14.43;;;8.73;;
7965;SDS011;4028;43.272;26.932;2023-03-14T05:18:35;13.43;;;9.10;;
7965;SDS011;4028;43.272;26.932;2023-03-14T05:21:01;13.37;;;8.70;;
7965;SDS011;4028;43.272;26.932;2023-03-14T05:23:26;13.60;;;7.53;;
7965;SDS011;4028;43.272;26.932;2023-03-14T05:25:52;8.47;;;6.27;;
7965;SDS011;4028;43.272;26.932;2023-03-14T05:28:17;9.13;;;6.17;;
7965;SDS011;4028;43.272;26.932;2023-03-14T05:30:43;14.97;;;6.63;;
7965;SDS011;4028;43.272;26.932;2023-03-14T05:33:08;10.30;;;6.97;;
7965;SDS011;4028;43.272;26.932;2023-03-14T05:35:34;8.60;;;6.27;;
7965;SDS011;4028;43.272;26.932;2023-03-14T05:37:59;10.40;;;6.80;;
7965;SDS011;4028;43.272;26.932;2023-03-14T05:40:25;10.53;;;6.40;;
7965;SDS011;4028;43.272;26.932;2023-03-14T05:42:50;10.00;;;7.10;;
7965;SDS011;4028;43.272;26.932;2023-03-14T05:45:17;9.17;;;6.87;;
7965;SDS011;4028;43.272;26.932;2023-03-14T05:47:43;8.63;;;5.93;;
7965;SDS011;4028;43.272;26.932;2023-03-14T05:50:08;10.33;;;5.73;;
7965;SDS011;4028;43.272;26.932;2023-03-14T05:52:35;9.77;;;5.37;;
7965;SDS011;4028;43.272;26.932;2023-03-14T05:55:00;12.17;;;5.10;;
7965;SDS011;4028;43.272;26.932;2023-03-14T05:57:26;10.00;;;4.83;;
7965;SDS011;4028;43.272;26.932;2023-03-14T05:59:51;8.83;;;4.77;;
7965;SDS011;4028;43.272;26.932;2023-03-14T06:02:17;8.23;;;4.53;;
7965;SDS011;4028;43.272;26.932;2023-03-14T06:04:42;7.17;;;4.30;;
7965;SDS011;4028;43.272;26.932;2023-03-14T06:07:08;8.63;;;4.20;;
7965;SDS011;4028;43.272;26.932;2023-03-14T06:09:34;7.67;;;3.90;;
7965;SDS011;4028;43.272;26.932;2023-03-14T06:11:59;6.33;;;4.17;;
7965;SDS011;4028;43.272;26.932;2023-03-14T06:14:24;7.97;;;4.40;;
7965;SDS011;4028;43.272;26.932;2023-03-14T06:16:50;6.90;;;3.43;;
7965;SDS011;4028;43.272;26.932;2023-03-14T06:19:15;11.40;;;4.47;;
7965;SDS011;4028;43.272;26.932;2023-03-14T06:21:41;5.83;;;4.13;;
7965;SDS011;4028;43.272;26.932;2023-03-14T06:24:07;10.20;;;4.00;;
7965;SDS011;4028;43.272;26.932;2023-03-14T06:26:33;8.13;;;4.30;;
7965;SDS011;4028;43.272;26.932;2023-03-14T06:28:58;8.90;;;4.10;;
7965;SDS011;4028;43.272;26.932;2023-03-14T06:31:28;8.13;;;6.17;;
7965;SDS011;4028;43.272;26.932;2023-03-14T06:33:55;14.67;;;7.47;;
7965;SDS011;4028;43.272;26.932;2023-03-14T06:36:20;9.10;;;6.03;;
7965;SDS011;4028;43.272;26.932;2023-03-14T06:38:46;8.10;;;5.13;;
7965;SDS011;4028;43.272;26.932;2023-03-14T06:41:11;8.50;;;4.50;;
7965;SDS011;4028;43.272;26.932;2023-03-14T06:43:37;9.53;;;4.77;;
7965;SDS011;4028;43.272;26.932;2023-03-14T06:46:02;6.40;;;3.70;;
7965;SDS011;4028;43.272;26.932;2023-03-14T06:48:28;6.30;;;3.67;;
7965;SDS011;4028;43.272;26.932;2023-03-14T06:50:53;4.60;;;3.67;;
7965;SDS011;4028;43.272;26.932;2023-03-14T06:53:19;6.13;;;3.50;;
7965;SDS011;4028;43.272;26.932;2023-03-14T06:55:44;6.90;;;3.40;;
7965;SDS011;4028;43.272;26.932;2023-03-14T06:58:10;6.93;;;3.67;;
7965;SDS011;4028;43.272;26.932;2023-03-14T07:00:36;7.83;;;3.27;;
7965;SDS011;4028;43.272;26.932;2023-03-14T07:03:02;4.43;;;3.23;;
7965;SDS011;4028;43.272;26.932;2023-03-14T07:05:27;7.57;;;3.53;;
7965;SDS011;4028;43.272;26.932;2023-03-14T07:07:53;9.47;;;3.23;;
7965;SDS011;4028;43.272;26.932;2023-03-14T07:10:18;7.07;;;3.20;;
7965;SDS011;4028;43.272;26.932;2023-03-14T07:12:44;4.37;;;3.10;;
7965;SDS011;4028;43.272;26.932;2023-03-14T07:15:10;5.27;;;3.17;;
7965;SDS011;4028;43.272;26.932;2023-03-14T07:17:36;4.07;;;3.40;;
7965;SDS011;4028;43.272;26.932;2023-03-14T07:20:01;5.23;;;3.20;;
7965;SDS011;4028;43.272;26.932;2023-03-14T07:22:29;5.00;;;2.97;;
7965;SDS011;4028;43.272;26.932;2023-03-14T07:24:55;10.10;;;3.10;;
7965;SDS011;4028;43.272;26.932;2023-03-14T07:27:20;3.43;;;3.00;;
7965;SDS011;4028;43.272;26.932;2023-03-14T07:29:46;4.77;;;3.23;;
7965;SDS011;4028;43.272;26.932;2023-03-14T07:32:11;5.30;;;2.77;;
7965;SDS011;4028;43.272;26.932;2023-03-14T07:34:40;3.17;;;2.70;;
7965;SDS011;4028;43.272;26.932;2023-03-14T07:37:06;4.80;;;2.70;;
7965;SDS011;4028;43.272;26.932;2023-03-14T07:39:31;4.50;;;2.90;;
7965;SDS011;4028;43.272;26.932;2023-03-14T07:41:57;3.03;;;2.43;;
7965;SDS011;4028;43.272;26.932;2023-03-14T07:44:22;4.80;;;2.10;;
7965;SDS011;4028;43.272;26.932;2023-03-14T07:46:48;2.70;;;2.17;;
7965;SDS011;4028;43.272;26.932;2023-03-14T07:49:13;2.73;;;2.00;;
7965;SDS011;4028;43.272;26.932;2023-03-14T07:51:38;4.87;;;2.40;;
7965;SDS011;4028;43.272;26.932;2023-03-14T07:54:04;4.50;;;2.10;;
7965;SDS011;4028;43.272;26.932;2023-03-14T07:56:29;4.57;;;2.03;;
7965;SDS011;4028;43.272;26.932;2023-03-14T07:58:56;2.87;;;1.87;;
7965;SDS011;4028;43.272;26.932;2023-03-14T08:01:22;2.83;;;1.90;;
7965;SDS011;4028;43.272;26.932;2023-03-14T08:03:47;1.80;;;1.67;;
7965;SDS011;4028;43.272;26.932;2023-03-14T08:06:13;2.50;;;1.80;;
7965;SDS011;4028;43.272;26.932;2023-03-14T08:08:38;2.90;;;2.00;;
7965;SDS011;4028;43.272;26.932;2023-03-14T08:11:04;1.97;;;1.60;;
7965;SDS011;4028;43.272;26.932;2023-03-14T08:13:30;2.50;;;2.00;;
7965;SDS011;4028;43.272;26.932;2023-03-14T08:15:56;2.30;;;1.50;;
7965;SDS011;4028;43.272;26.932;2023-03-14T08:18:22;1.90;;;1.70;;
7965;SDS011;4028;43.272;26.932;2023-03-14T08:20:47;2.30;;;1.73;;
7965;SDS011;4028;43.272;26.932;2023-03-14T08:23:13;1.80;;;1.40;;
7965;SDS011;4028;43.272;26.932;2023-03-14T08:25:38;1.60;;;1.47;;
7965;SDS011;4028;43.272;26.932;2023-03-14T08:28:04;1.80;;;1.40;;
7965;SDS011;4028;43.272;26.932;2023-03-14T08:30:29;1.73;;;1.40;;
7965;SDS011;4028;43.272;26.932;2023-03-14T08:32:57;1.83;;;1.30;;
7965;SDS011;4028;43.272;26.932;2023-03-14T08:35:23;2.93;;;1.50;;
7965;SDS011;4028;43.272;26.932;2023-03-14T08:37:50;1.87;;;1.43;;
7965;SDS011;4028;43.272;26.932;2023-03-14T08:40:16;1.60;;;1.30;;
7965;SDS011;4028;43.272;26.932;2023-03-14T08:42:42;2.73;;;1.43;;
7965;SDS011;4028;43.272;26.932;2023-03-14T08:45:08;1.67;;;1.43;;
7965;SDS011;4028;43.272;26.932;2023-03-14T08:47:36;1.87;;;1.40;;
7965;SDS011;4028;43.272;26.932;2023-03-14T08:50:02;1.93;;;1.50;;
7965;SDS011;4028;43.272;26.932;2023-03-14T08:52:29;1.60;;;1.47;;
7965;SDS011;4028;43.272;26.932;2023-03-14T08:54:56;1.53;;;1.43;;
7965;SDS011;4028;43.272;26.932;2023-03-14T08:57:21;1.80;;;1.20;;
7965;SDS011;4028;43.272;26.932;2023-03-14T08:59:47;1.67;;;1.40;;
7965;SDS011;4028;43.272;26.932;2023-03-14T09:02:12;2.30;;;1.20;;
7965;SDS011;4028;43.272;26.932;2023-03-14T09:04:38;1.83;;;1.67;;
7965;SDS011;4028;43.272;26.932;2023-03-14T09:07:03;3.50;;;1.83;;
7965;SDS011;4028;43.272;26.932;2023-03-14T09:09:29;1.63;;;1.53;;
7965;SDS011;4028;43.272;26.932;2023-03-14T09:11:55;2.37;;;2.07;;
7965;SDS011;4028;43.272;26.932;2023-03-14T09:14:21;2.37;;;1.50;;
7965;SDS011;4028;43.272;26.932;2023-03-14T09:16:46;1.43;;;1.10;;
7965;SDS011;4028;43.272;26.932;2023-03-14T09:19:12;3.80;;;1.40;;
7965;SDS011;4028;43.272;26.932;2023-03-14T09:21:37;1.40;;;1.30;;
7965;SDS011;4028;43.272;26.932;2023-03-14T09:24:04;1.40;;;1.30;;
7965;SDS011;4028;43.272;26.932;2023-03-14T09:26:30;3.07;;;1.23;;
7965;SDS011;4028;43.272;26.932;2023-03-14T09:28:55;2.57;;;1.50;;
7965;SDS011;4028;43.272;26.932;2023-03-14T09:31:21;2.73;;;1.37;;
7965;SDS011;4028;43.272;26.932;2023-03-14T09:33:46;1.37;;;1.27;;
7965;SDS011;4028;43.272;26.932;2023-03-14T09:36:12;3.03;;;1.47;;
7965;SDS011;4028;43.272;26.932;2023-03-14T09:38:37;3.30;;;2.17;;
7965;SDS011;4028;43.272;26.932;2023-03-14T09:41:06;1.60;;;1.50;;
7965;SDS011;4028;43.272;26.932;2023-03-14T09:43:40;2.23;;;1.20;;
7965;SDS011;4028;43.272;26.932;2023-03-14T09:46:08;1.20;;;1.10;;
7965;SDS011;4028;43.272;26.932;2023-03-14T09:48:36;3.33;;;1.60;;
7965;SDS011;4028;43.272;26.932;2023-03-14T09:51:05;1.88;;;1.42;;
7965;SDS011;4028;43.272;26.932;2023-03-14T09:53:39;3.35;;;1.42;;
7965;SDS011;4028;43.272;26.932;2023-03-14T09:56:18;3.95;;;1.67;;
7965;SDS011;4028;43.272;26.932;2023-03-14T09:58:48;2.08;;;1.65;;
7965;SDS011;4028;43.272;26.932;2023-03-14T10:01:20;1.70;;;1.50;;
7965;SDS011;4028;43.272;26.932;2023-03-14T10:03:50;2.50;;;1.30;;
7965;SDS011;4028;43.272;26.932;2023-03-14T10:06:25;1.50;;;1.40;;
7965;SDS011;4028;43.272;26.932;2023-03-14T10:08:52;2.30;;;1.77;;
7965;SDS011;4028;43.272;26.932;2023-03-14T10:11:19;1.40;;;1.20;;
7965;SDS011;4028;43.272;26.932;2023-03-14T10:16:34;1.50;;;1.10;;
7965;SDS011;4028;43.272;26.932;2023-03-14T10:19:03;2.50;;;1.00;;
7965;SDS011;4028;43.272;26.932;2023-03-14T10:21:30;1.80;;;1.40;;
7965;SDS011;4028;43.272;26.932;2023-03-14T10:26:48;1.60;;;1.47;;
7965;SDS011;4028;43.272;26.932;2023-03-14T10:29:16;1.43;;;1.20;;
7965;SDS011;4028;43.272;26.932;2023-03-14T10:31:46;3.00;;;1.40;;
7965;SDS011;4028;43.272;26.932;2023-03-14T10:34:15;2.63;;;1.27;;
7965;SDS011;4028;43.272;26.932;2023-03-14T10:36:42;2.03;;;1.52;;
7965;SDS011;4028;43.272;26.932;2023-03-14T10:39:51;3.07;;;1.47;;
7965;SDS011;4028;43.272;26.932;2023-03-14T10:42:16;2.67;;;1.70;;
7965;SDS011;4028;43.272;26.932;2023-03-14T10:44:46;2.40;;;1.27;;
7965;SDS011;4028;43.272;26.932;2023-03-14T10:47:19;1.97;;;1.80;;
7965;SDS011;4028;43.272;26.932;2023-03-14T10:49:48;1.93;;;1.60;;
7965;SDS011;4028;43.272;26.932;2023-03-14T10:54:46;3.83;;;1.70;;
7965;SDS011;4028;43.272;26.932;2023-03-14T10:57:12;6.27;;;1.50;;
7965;SDS011;4028;43.272;26.932;2023-03-14T10:59:39;3.00;;;1.75;;
7965;SDS011;4028;43.272;26.932;2023-03-14T11:07:39;2.08;;;1.40;;
7965;SDS011;4028;43.272;26.932;2023-03-14T11:15:33;1.40;;;1.30;;
7965;SDS011;4028;43.272;26.932;2023-03-14T11:29:40;1.30;;;1.20;;
7965;SDS011;4028;43.272;26.932;2023-03-14T11:32:12;1.83;;;1.50;;
7965;SDS011;4028;43.272;26.932;2023-03-14T11:34:52;2.40;;;1.60;;
7965;SDS011;4028;43.272;26.932;2023-03-14T11:37:42;1.27;;;1.17;;
7965;SDS011;4028;43.272;26.932;2023-03-14T11:40:13;1.20;;;1.08;;
7965;SDS011;4028;43.272;26.932;2023-03-14T11:42:43;1.37;;;1.20;;
7965;SDS011;4028;43.272;26.932;2023-03-14T11:45:18;1.30;;;1.20;;
7965;SDS011;4028;43.272;26.932;2023-03-14T11:47:58;1.40;;;1.30;;
7965;SDS011;4028;43.272;26.932;2023-03-14T11:50:40;1.40;;;1.10;;
7965;SDS011;4028;43.272;26.932;2023-03-14T11:53:13;2.13;;;1.40;;
7965;SDS011;4028;43.272;26.932;2023-03-14T11:55:43;4.00;;;1.90;;
7965;SDS011;4028;43.272;26.932;2023-03-14T12:00:40;1.93;;;1.83;;
7965;SDS011;4028;43.272;26.932;2023-03-14T12:03:13;3.45;;;1.70;;
7965;SDS011;4028;43.272;26.932;2023-03-14T12:09:03;1.38;;;1.20;;
7965;SDS011;4028;43.272;26.932;2023-03-14T12:11:34;3.47;;;1.70;;
7965;SDS011;4028;43.272;26.932;2023-03-14T12:16:55;3.30;;;1.80;;
7965;SDS011;4028;43.272;26.932;2023-03-14T12:19:33;2.72;;;1.60;;
7965;SDS011;4028;43.272;26.932;2023-03-14T12:24:45;1.40;;;1.30;;
7965;SDS011;4028;43.272;26.932;2023-03-14T12:33:41;2.78;;;1.77;;
7965;SDS011;4028;43.272;26.932;2023-03-14T12:38:22;1.77;;;1.40;;
7965;SDS011;4028;43.272;26.932;2023-03-14T12:43:32;1.63;;;1.38;;
7965;SDS011;4028;43.272;26.932;2023-03-14T12:51:28;1.33;;;1.23;;
7965;SDS011;4028;43.272;26.932;2023-03-14T12:59:36;1.95;;;1.40;;
7965;SDS011;4028;43.272;26.932;2023-03-14T13:04:44;2.22;;;1.70;;
7965;SDS011;4028;43.272;26.932;2023-03-14T13:12:50;1.85;;;1.02;;
7965;SDS011;4028;43.272;26.932;2023-03-14T13:15:35;1.38;;;1.17;;
7965;SDS011;4028;43.272;26.932;2023-03-14T13:21:37;3.38;;;1.30;;
7965;SDS011;4028;43.272;26.932;2023-03-14T13:24:45;1.42;;;1.30;;
7965;SDS011;4028;43.272;26.932;2023-03-14T13:26:47;1.30;;;1.20;;
7965;SDS011;4028;43.272;26.932;2023-03-14T13:31:50;1.53;;;1.40;;
7965;SDS011;4028;43.272;26.932;2023-03-14T13:34:17;1.87;;;1.40;;
7965;SDS011;4028;43.272;26.932;2023-03-14T13:36:43;2.17;;;1.07;;
7965;SDS011;4028;43.272;26.932;2023-03-14T13:39:13;3.27;;;1.37;;
7965;SDS011;4028;43.272;26.932;2023-03-14T13:41:42;1.40;;;1.30;;
7965;SDS011;4028;43.272;26.932;2023-03-14T13:44:12;1.33;;;1.23;;
7965;SDS011;4028;43.272;26.932;2023-03-14T13:46:41;1.63;;;1.33;;
7965;SDS011;4028;43.272;26.932;2023-03-14T13:49:09;1.60;;;1.30;;
7965;SDS011;4028;43.272;26.932;2023-03-14T13:51:42;6.57;;;1.23;;
7965;SDS011;4028;43.272;26.932;2023-03-14T13:54:15;1.50;;;1.10;;
7965;SDS011;4028;43.272;26.932;2023-03-14T13:56:42;3.23;;;1.50;;
7965;SDS011;4028;43.272;26.932;2023-03-14T14:02:14;1.30;;;1.20;;
7965;SDS011;4028;43.272;26.932;2023-03-14T14:04:40;1.50;;;1.40;;
7965;SDS011;4028;43.272;26.932;2023-03-14T14:07:10;1.37;;;1.27;;
7965;SDS011;4028;43.272;26.932;2023-03-14T14:09:50;2.57;;;1.43;;
7965;SDS011;4028;43.272;26.932;2023-03-14T14:17:32;2.37;;;1.23;;
7965;SDS011;4028;43.272;26.932;2023-03-14T14:20:33;1.70;;;1.40;;
7965;SDS011;4028;43.272;26.932;2023-03-14T14:23:06;2.77;;;1.40;;
7965;SDS011;4028;43.272;26.932;2023-03-14T14:25:36;1.97;;;1.40;;
7965;SDS011;4028;43.272;26.932;2023-03-14T14:28:23;1.27;;;1.17;;
7965;SDS011;4028;43.272;26.932;2023-03-14T14:33:30;1.50;;;1.40;;
7965;SDS011;4028;43.272;26.932;2023-03-14T14:36:04;2.83;;;1.20;;
7965;SDS011;4028;43.272;26.932;2023-03-14T14:38:36;4.70;;;1.30;;
7965;SDS011;4028;43.272;26.932;2023-03-14T14:41:02;1.23;;;1.10;;
7965;SDS011;4028;43.272;26.932;2023-03-14T14:43:28;2.67;;;1.20;;
7965;SDS011;4028;43.272;26.932;2023-03-14T14:45:59;1.83;;;1.40;;
7965;SDS011;4028;43.272;26.932;2023-03-14T14:48:26;3.63;;;1.43;;
7965;SDS011;4028;43.272;26.932;2023-03-14T14:58:43;1.63;;;1.10;;
7965;SDS011;4028;43.272;26.932;2023-03-14T15:01:17;2.83;;;1.00;;
7965;SDS011;4028;43.272;26.932;2023-03-14T15:03:46;1.33;;;1.10;;
7965;SDS011;4028;43.272;26.932;2023-03-14T15:06:13;3.30;;;1.60;;
7965;SDS011;4028;43.272;26.932;2023-03-14T15:08:40;2.03;;;1.47;;
7965;SDS011;4028;43.272;26.932;2023-03-14T15:11:10;3.63;;;1.27;;
7965;SDS011;4028;43.272;26.932;2023-03-14T15:13:51;1.57;;;1.20;;
7965;SDS011;4028;43.272;26.932;2023-03-14T15:16:21;2.43;;;1.37;;
7965;SDS011;4028;43.272;26.932;2023-03-14T15:18:55;1.50;;;1.20;;
7965;SDS011;4028;43.272;26.932;2023-03-14T15:21:23;1.40;;;1.30;;
7965;SDS011;4028;43.272;26.932;2023-03-14T15:23:49;2.77;;;1.53;;
7965;SDS011;4028;43.272;26.932;2023-03-14T15:26:17;3.43;;;1.60;;
7965;SDS011;4028;43.272;26.932;2023-03-14T15:28:45;1.97;;;1.43;;
7965;SDS011;4028;43.272;26.932;2023-03-14T15:31:11;4.80;;;1.70;;
7965;SDS011;4028;43.272;26.932;2023-03-14T15:33:38;1.83;;;1.60;;
7965;SDS011;4028;43.272;26.932;2023-03-14T15:36:03;4.03;;;1.47;;
7965;SDS011;4028;43.272;26.932;2023-03-14T15:38:31;2.00;;;1.47;;
7965;SDS011;4028;43.272;26.932;2023-03-14T15:40:56;1.93;;;1.20;;
7965;SDS011;4028;43.272;26.932;2023-03-14T15:43:22;5.37;;;1.60;;
7965;SDS011;4028;43.272;26.932;2023-03-14T15:45:47;5.13;;;1.67;;
7965;SDS011;4028;43.272;26.932;2023-03-14T15:48:18;2.10;;;1.73;;
7965;SDS011;4028;43.272;26.932;2023-03-14T15:50:45;3.17;;;2.07;;
7965;SDS011;4028;43.272;26.932;2023-03-14T15:53:10;2.93;;;2.20;;
7965;SDS011;4028;43.272;26.932;2023-03-14T15:55:36;6.50;;;2.47;;
7965;SDS011;4028;43.272;26.932;2023-03-14T15:58:02;2.90;;;2.50;;
7965;SDS011;4028;43.272;26.932;2023-03-14T16:00:28;3.97;;;2.80;;
7965;SDS011;4028;43.272;26.932;2023-03-14T16:02:54;6.40;;;3.37;;
7965;SDS011;4028;43.272;26.932;2023-03-14T16:05:19;4.00;;;3.27;;
7965;SDS011;4028;43.272;26.932;2023-03-14T16:07:45;4.90;;;3.73;;
7965;SDS011;4028;43.272;26.932;2023-03-14T16:10:11;5.87;;;3.57;;
7965;SDS011;4028;43.272;26.932;2023-03-14T16:12:37;6.97;;;4.00;;
7965;SDS011;4028;43.272;26.932;2023-03-14T16:15:03;4.33;;;3.63;;
7965;SDS011;4028;43.272;26.932;2023-03-14T16:17:29;9.27;;;4.77;;
7965;SDS011;4028;43.272;26.932;2023-03-14T16:19:55;6.13;;;4.17;;
7965;SDS011;4028;43.272;26.932;2023-03-14T16:22:21;5.20;;;4.27;;
7965;SDS011;4028;43.272;26.932;2023-03-14T16:24:48;6.03;;;3.90;;
7965;SDS011;4028;43.272;26.932;2023-03-14T16:27:13;7.57;;;4.10;;
7965;SDS011;4028;43.272;26.932;2023-03-14T16:29:39;5.67;;;3.10;;
7965;SDS011;4028;43.272;26.932;2023-03-14T16:32:05;6.17;;;3.40;;
7965;SDS011;4028;43.272;26.932;2023-03-14T16:34:31;4.53;;;3.57;;
7965;SDS011;4028;43.272;26.932;2023-03-14T16:36:56;7.20;;;3.63;;
7965;SDS011;4028;43.272;26.932;2023-03-14T16:39:22;3.77;;;2.80;;
7965;SDS011;4028;43.272;26.932;2023-03-14T16:41:47;4.90;;;3.00;;
7965;SDS011;4028;43.272;26.932;2023-03-14T16:44:13;10.27;;;5.70;;
7965;SDS011;4028;43.272;26.932;2023-03-14T16:46:39;8.90;;;5.37;;
7965;SDS011;4028;43.272;26.932;2023-03-14T16:49:04;14.43;;;8.07;;